sensor_id;sensor_type;location;lat;lon;timestamp;temperature;humidity
69938;DHT22;57248;47.320;15.998;2024-01-30T00:00:57;-4.82;93.95
69938;DHT22;57248;47.320;15.998;2024-01-30T00:03:30;-4.90;93.10
69938;DHT22;57248;47.320;15.998;2024-01-30T00:06:09;-4.95;93.52
69938;DHT22;57248;47.320;15.998;2024-01-30T00:08:40;-4.95;93.69
69938;DHT22;57248;47.320;15.998;2024-01-30T00:11:12;-4.95;93.73
69938;DHT22;57248;47.320;15.998;2024-01-30T00:13:38;-4.95;93.67
69938;DHT22;57248;47.320;15.998;2024-01-30T00:16:23;-5.01;93.38
69938;DHT22;57248;47.320;15.998;2024-01-30T00:18:58;-5.03;93.65
69938;DHT22;57248;47.320;15.998;2024-01-30T00:21:29;-5.04;93.91
69938;DHT22;57248;47.320;15.998;2024-01-30T00:24:02;-5.10;93.66
69938;DHT22;57248;47.320;15.998;2024-01-30T00:26:34;-5.13;93.35
69938;DHT22;57248;47.320;15.998;2024-01-30T00:29:06;-5.11;94.25
69938;DHT22;57248;47.320;15.998;2024-01-30T00:31:37;-5.11;94.11
69938;DHT22;57248;47.320;15.998;2024-01-30T00:34:09;-5.06;94.69
69938;DHT22;57248;47.320;15.998;2024-01-30T00:36:48;-5.17;94.37
69938;DHT22;57248;47.320;15.998;2024-01-30T00:39:20;-5.23;93.69
69938;DHT22;57248;47.320;15.998;2024-01-30T00:41:52;-5.21;93.81
69938;DHT22;57248;47.320;15.998;2024-01-30T00:44:26;-5.27;94.04
69938;DHT22;57248;47.320;15.998;2024-01-30T00:46:51;-5.24;94.59
69938;DHT22;57248;47.320;15.998;2024-01-30T00:49:23;-5.17;94.74
69938;DHT22;57248;47.320;15.998;2024-01-30T00:51:55;-5.27;93.82
69938;DHT22;57248;47.320;15.998;2024-01-30T00:54:28;-5.24;94.31
69938;DHT22;57248;47.320;15.998;2024-01-30T00:57:00;-5.27;94.00
69938;DHT22;57248;47.320;15.998;2024-01-30T00:59:32;-5.30;93.72
69938;DHT22;57248;47.320;15.998;2024-01-30T01:02:05;-5.38;93.15
69938;DHT22;57248;47.320;15.998;2024-01-30T01:04:37;-5.34;93.80
69938;DHT22;57248;47.320;15.998;2024-01-30T01:07:10;-5.38;93.75
69938;DHT22;57248;47.320;15.998;2024-01-30T01:09:42;-5.42;93.78
69938;DHT22;57248;47.320;15.998;2024-01-30T01:12:15;-5.40;95.39
69938;DHT22;57248;47.320;15.998;2024-01-30T01:14:47;-5.47;94.53
69938;DHT22;57248;47.320;15.998;2024-01-30T01:17:20;-5.44;94.12
69938;DHT22;57248;47.320;15.998;2024-01-30T01:19:51;-5.54;93.73
69938;DHT22;57248;47.320;15.998;2024-01-30T01:22:24;-5.61;93.74
69938;DHT22;57248;47.320;15.998;2024-01-30T01:24:49;-5.65;94.33
69938;DHT22;57248;47.320;15.998;2024-01-30T01:27:20;-5.59;93.95
69938;DHT22;57248;47.320;15.998;2024-01-30T01:29:53;-5.64;93.53
69938;DHT22;57248;47.320;15.998;2024-01-30T01:32:26;-5.51;94.91
69938;DHT22;57248;47.320;15.998;2024-01-30T01:34:57;-5.48;94.92
69938;DHT22;57248;47.320;15.998;2024-01-30T01:37:29;-5.58;94.51
69938;DHT22;57248;47.320;15.998;2024-01-30T01:40:09;-5.61;94.23
69938;DHT22;57248;47.320;15.998;2024-01-30T01:42:40;-5.58;94.20
69938;DHT22;57248;47.320;15.998;2024-01-30T01:45:13;-5.64;94.03
69938;DHT22;57248;47.320;15.998;2024-01-30T01:47:47;-5.61;94.57
69938;DHT22;57248;47.320;15.998;2024-01-30T01:50:20;-5.57;95.44
69938;DHT22;57248;47.320;15.998;2024-01-30T01:52:53;-5.46;96.52
69938;DHT22;57248;47.320;15.998;2024-01-30T01:55:27;-5.34;96.84
69938;DHT22;57248;47.320;15.998;2024-01-30T01:57:55;-5.41;96.37
69938;DHT22;57248;47.320;15.998;2024-01-30T02:00:27;-5.54;94.91
69938;DHT22;57248;47.320;15.998;2024-01-30T02:03:00;-5.68;94.78
69938;DHT22;57248;47.320;15.998;2024-01-30T02:05:32;-5.71;95.50
69938;DHT22;57248;47.320;15.998;2024-01-30T02:08:04;-5.72;95.07
69938;DHT22;57248;47.320;15.998;2024-01-30T02:10:37;-5.71;94.90
69938;DHT22;57248;47.320;15.998;2024-01-30T02:13:09;-5.79;94.52
69938;DHT22;57248;47.320;15.998;2024-01-30T02:15:41;-5.81;94.99
69938;DHT22;57248;47.320;15.998;2024-01-30T02:18:13;-5.81;95.08
69938;DHT22;57248;47.320;15.998;2024-01-30T02:20:38;-5.75;94.45
69938;DHT22;57248;47.320;15.998;2024-01-30T02:23:12;-5.75;95.56
69938;DHT22;57248;47.320;15.998;2024-01-30T02:25:44;-5.72;95.98
69938;DHT22;57248;47.320;15.998;2024-01-30T02:28:16;-5.75;96.80
69938;DHT22;57248;47.320;15.998;2024-01-30T02:30:48;-5.74;96.26
69938;DHT22;57248;47.320;15.998;2024-01-30T02:33:20;-5.75;96.87
69938;DHT22;57248;47.320;15.998;2024-01-30T02:36:00;-5.79;95.45
69938;DHT22;57248;47.320;15.998;2024-01-30T02:38:33;-5.85;95.11
69938;DHT22;57248;47.320;15.998;2024-01-30T02:41:12;-5.88;95.06
69938;DHT22;57248;47.320;15.998;2024-01-30T02:43:43;-5.95;94.92
69938;DHT22;57248;47.320;15.998;2024-01-30T02:46:16;-5.89;95.42
69938;DHT22;57248;47.320;15.998;2024-01-30T02:48:41;-5.89;95.43
69938;DHT22;57248;47.320;15.998;2024-01-30T02:51:12;-5.95;94.74
69938;DHT22;57248;47.320;15.998;2024-01-30T02:53:45;-6.06;94.20
69938;DHT22;57248;47.320;15.998;2024-01-30T02:56:17;-6.07;94.17
69938;DHT22;57248;47.320;15.998;2024-01-30T02:58:49;-6.00;94.45
69938;DHT22;57248;47.320;15.998;2024-01-30T03:01:21;-6.06;94.43
69938;DHT22;57248;47.320;15.998;2024-01-30T03:03:53;-6.06;95.15
69938;DHT22;57248;47.320;15.998;2024-01-30T03:06:25;-6.11;94.78
69938;DHT22;57248;47.320;15.998;2024-01-30T03:08:57;-6.14;94.83
69938;DHT22;57248;47.320;15.998;2024-01-30T03:11:29;-6.10;95.35
69938;DHT22;57248;47.320;15.998;2024-01-30T03:14:01;-6.13;95.04
69938;DHT22;57248;47.320;15.998;2024-01-30T03:16:33;-6.14;94.58
69938;DHT22;57248;47.320;15.998;2024-01-30T03:19:08;-6.11;96.59
69938;DHT22;57248;47.320;15.998;2024-01-30T03:21:34;-6.13;96.91
69938;DHT22;57248;47.320;15.998;2024-01-30T03:24:06;-6.10;97.13
69938;DHT22;57248;47.320;15.998;2024-01-30T03:26:38;-6.17;96.54
69938;DHT22;57248;47.320;15.998;2024-01-30T03:29:10;-6.19;96.33
69938;DHT22;57248;47.320;15.998;2024-01-30T03:31:42;-6.14;96.10
69938;DHT22;57248;47.320;15.998;2024-01-30T03:34:17;-6.17;95.93
69938;DHT22;57248;47.320;15.998;2024-01-30T03:36:55;-6.23;95.23
69938;DHT22;57248;47.320;15.998;2024-01-30T03:39:28;-6.27;95.40
69938;DHT22;57248;47.320;15.998;2024-01-30T03:42:07;-6.31;94.50
69938;DHT22;57248;47.320;15.998;2024-01-30T03:44:39;-6.30;94.85
69938;DHT22;57248;47.320;15.998;2024-01-30T03:47:11;-6.31;95.14
69938;DHT22;57248;47.320;15.998;2024-01-30T03:49:42;-6.30;95.33
69938;DHT22;57248;47.320;15.998;2024-01-30T03:52:15;-6.21;95.71
69938;DHT22;57248;47.320;15.998;2024-01-30T03:54:47;-6.21;96.78
69938;DHT22;57248;47.320;15.998;2024-01-30T03:57:19;-6.23;97.00
69938;DHT22;57248;47.320;15.998;2024-01-30T03:59:51;-6.19;97.83
69938;DHT22;57248;47.320;15.998;2024-01-30T04:02:23;-6.17;98.14
69938;DHT22;57248;47.320;15.998;2024-01-30T04:04:55;-6.16;98.31
69938;DHT22;57248;47.320;15.998;2024-01-30T04:07:27;-6.16;97.88
69938;DHT22;57248;47.320;15.998;2024-01-30T04:09:59;-6.14;96.58
69938;DHT22;57248;47.320;15.998;2024-01-30T04:12:31;-6.27;95.67
69938;DHT22;57248;47.320;15.998;2024-01-30T04:15:04;-6.27;95.86
69938;DHT22;57248;47.320;15.998;2024-01-30T04:17:29;-6.36;95.34
69938;DHT22;57248;47.320;15.998;2024-01-30T04:20:02;-6.34;96.29
69938;DHT22;57248;47.320;15.998;2024-01-30T04:22:35;-6.26;96.51
69938;DHT22;57248;47.320;15.998;2024-01-30T04:25:07;-6.23;97.20
69938;DHT22;57248;47.320;15.998;2024-01-30T04:27:39;-6.20;96.89
69938;DHT22;57248;47.320;15.998;2024-01-30T04:30:11;-6.23;96.31
69938;DHT22;57248;47.320;15.998;2024-01-30T04:32:43;-6.38;95.61
69938;DHT22;57248;47.320;15.998;2024-01-30T04:35:16;-6.45;95.47
69938;DHT22;57248;47.320;15.998;2024-01-30T04:37:54;-6.42;95.75
69938;DHT22;57248;47.320;15.998;2024-01-30T04:40:27;-6.44;96.40
69938;DHT22;57248;47.320;15.998;2024-01-30T04:42:59;-6.45;95.94
69938;DHT22;57248;47.320;15.998;2024-01-30T04:45:31;-6.44;96.03
69938;DHT22;57248;47.320;15.998;2024-01-30T04:48:03;-6.45;95.98
69938;DHT22;57248;47.320;15.998;2024-01-30T04:50:35;-6.42;95.98
69938;DHT22;57248;47.320;15.998;2024-01-30T04:53:07;-6.45;96.22
69938;DHT22;57248;47.320;15.998;2024-01-30T04:55:40;-6.48;95.67
69938;DHT22;57248;47.320;15.998;2024-01-30T04:58:05;-6.45;95.97
69938;DHT22;57248;47.320;15.998;2024-01-30T05:00:37;-6.55;95.52
69938;DHT22;57248;47.320;15.998;2024-01-30T05:03:09;-6.47;95.97
69938;DHT22;57248;47.320;15.998;2024-01-30T05:05:41;-6.51;96.22
69938;DHT22;57248;47.320;15.998;2024-01-30T05:08:13;-6.47;95.69
69938;DHT22;57248;47.320;15.998;2024-01-30T05:10:45;-6.54;95.59
69938;DHT22;57248;47.320;15.998;2024-01-30T05:13:19;-6.48;95.91
69938;DHT22;57248;47.320;15.998;2024-01-30T05:15:51;-6.48;96.17
69938;DHT22;57248;47.320;15.998;2024-01-30T05:18:23;-6.58;95.79
69938;DHT22;57248;47.320;15.998;2024-01-30T05:20:56;-6.54;95.95
69938;DHT22;57248;47.320;15.998;2024-01-30T05:23:28;-6.61;96.21
69938;DHT22;57248;47.320;15.998;2024-01-30T05:26:00;-6.60;96.59
69938;DHT22;57248;47.320;15.998;2024-01-30T05:28:33;-6.57;96.64
69938;DHT22;57248;47.320;15.998;2024-01-30T05:31:06;-6.60;97.15
69938;DHT22;57248;47.320;15.998;2024-01-30T05:33:31;-6.57;96.83
69938;DHT22;57248;47.320;15.998;2024-01-30T05:36:04;-6.78;96.64
69938;DHT22;57248;47.320;15.998;2024-01-30T05:38:36;-6.65;97.15
69938;DHT22;57248;47.320;15.998;2024-01-30T05:41:15;-6.64;96.24
69938;DHT22;57248;47.320;15.998;2024-01-30T05:43:47;-6.70;96.19
69938;DHT22;57248;47.320;15.998;2024-01-30T05:46:20;-6.62;96.87
69938;DHT22;57248;47.320;15.998;2024-01-30T05:48:52;-6.62;97.14
69938;DHT22;57248;47.320;15.998;2024-01-30T05:51:24;-6.62;97.28
69938;DHT22;57248;47.320;15.998;2024-01-30T05:53:56;-6.58;96.68
69938;DHT22;57248;47.320;15.998;2024-01-30T05:56:28;-6.64;96.06
69938;DHT22;57248;47.320;15.998;2024-01-30T05:59:01;-6.72;95.68
69938;DHT22;57248;47.320;15.998;2024-01-30T06:01:33;-6.77;95.06
69938;DHT22;57248;47.320;15.998;2024-01-30T06:04:12;-6.82;94.92
69938;DHT22;57248;47.320;15.998;2024-01-30T06:06:45;-1.02;99.99
69938;DHT22;57248;47.320;15.998;2024-01-30T06:09:17;-0.20;99.99
69938;DHT22;57248;47.320;15.998;2024-01-30T06:11:50;-1.31;95.64
69938;DHT22;57248;47.320;15.998;2024-01-30T06:14:15;-3.55;93.30
69938;DHT22;57248;47.320;15.998;2024-01-30T06:16:47;-4.59;95.00
69938;DHT22;57248;47.320;15.998;2024-01-30T06:19:20;-5.34;96.02
69938;DHT22;57248;47.320;15.998;2024-01-30T06:21:52;-5.52;97.13
69938;DHT22;57248;47.320;15.998;2024-01-30T06:24:24;-5.78;97.39
69938;DHT22;57248;47.320;15.998;2024-01-30T06:27:05;-5.93;98.33
69938;DHT22;57248;47.320;15.998;2024-01-30T06:29:37;-6.02;97.63
69938;DHT22;57248;47.320;15.998;2024-01-30T06:32:10;-6.11;97.22
69938;DHT22;57248;47.320;15.998;2024-01-30T06:34:42;-6.03;97.10
69938;DHT22;57248;47.320;15.998;2024-01-30T06:37:16;-0.49;99.99
69938;DHT22;57248;47.320;15.998;2024-01-30T06:39:48;-4.18;95.95
69938;DHT22;57248;47.320;15.998;2024-01-30T06:42:20;-4.80;96.00
69938;DHT22;57248;47.320;15.998;2024-01-30T06:44:52;-5.27;95.44
69938;DHT22;57248;47.320;15.998;2024-01-30T06:47:25;-5.42;96.11
69938;DHT22;57248;47.320;15.998;2024-01-30T06:49:57;-5.55;95.48
69938;DHT22;57248;47.320;15.998;2024-01-30T06:52:30;-5.42;95.81
69938;DHT22;57248;47.320;15.998;2024-01-30T06:55:02;-5.16;95.17
69938;DHT22;57248;47.320;15.998;2024-01-30T06:57:28;-4.99;93.62
69938;DHT22;57248;47.320;15.998;2024-01-30T07:00:01;-4.90;92.43
69938;DHT22;57248;47.320;15.998;2024-01-30T07:02:33;-5.03;92.32
69938;DHT22;57248;47.320;15.998;2024-01-30T07:05:05;-4.95;93.11
69938;DHT22;57248;47.320;15.998;2024-01-30T07:07:37;-4.85;92.26
69938;DHT22;57248;47.320;15.998;2024-01-30T07:10:09;-4.68;92.11
69938;DHT22;57248;47.320;15.998;2024-01-30T07:12:41;-4.54;91.04
69938;DHT22;57248;47.320;15.998;2024-01-30T07:15:13;-4.42;91.58
69938;DHT22;57248;47.320;15.998;2024-01-30T07:17:48;-4.15;90.36
69938;DHT22;57248;47.320;15.998;2024-01-30T07:20:20;-3.79;89.49
69938;DHT22;57248;47.320;15.998;2024-01-30T07:22:52;-3.41;88.65
69938;DHT22;57248;47.320;15.998;2024-01-30T07:25:25;-2.97;87.79
69938;DHT22;57248;47.320;15.998;2024-01-30T07:28:01;-2.52;86.37
69938;DHT22;57248;47.320;15.998;2024-01-30T07:30:33;-2.41;86.56
69938;DHT22;57248;47.320;15.998;2024-01-30T07:33:05;-1.94;85.82
69938;DHT22;57248;47.320;15.998;2024-01-30T07:35:37;-1.68;84.60
69938;DHT22;57248;47.320;15.998;2024-01-30T07:38:10;-1.29;83.39
69938;DHT22;57248;47.320;15.998;2024-01-30T07:40:49;-0.99;83.14
69938;DHT22;57248;47.320;15.998;2024-01-30T07:43:21;-0.63;82.23
69938;DHT22;57248;47.320;15.998;2024-01-30T07:45:53;-0.22;81.91
69938;DHT22;57248;47.320;15.998;2024-01-30T07:48:26;0.25;80.47
69938;DHT22;57248;47.320;15.998;2024-01-30T07:50:58;0.52;79.70
69938;DHT22;57248;47.320;15.998;2024-01-30T07:53:31;0.77;78.70
69938;DHT22;57248;47.320;15.998;2024-01-30T07:56:03;1.17;77.94
69938;DHT22;57248;47.320;15.998;2024-01-30T07:58:37;10.11;81.62
69938;DHT22;57248;47.320;15.998;2024-01-30T08:01:09;10.31;66.88
69938;DHT22;57248;47.320;15.998;2024-01-30T08:03:41;7.11;62.69
69938;DHT22;57248;47.320;15.998;2024-01-30T08:06:13;4.42;66.90
69938;DHT22;57248;47.320;15.998;2024-01-30T08:08:45;4.63;68.57
69938;DHT22;57248;47.320;15.998;2024-01-30T08:11:18;4.54;68.57
69938;DHT22;57248;47.320;15.998;2024-01-30T08:13:54;4.20;68.69
69938;DHT22;57248;47.320;15.998;2024-01-30T08:16:26;8.34;68.64
69938;DHT22;57248;47.320;15.998;2024-01-30T08:18:58;8.27;65.83
69938;DHT22;57248;47.320;15.998;2024-01-30T08:21:31;6.35;62.85
69938;DHT22;57248;47.320;15.998;2024-01-30T08:24:08;5.07;65.81
69938;DHT22;57248;47.320;15.998;2024-01-30T08:26:40;5.12;66.94
69938;DHT22;57248;47.320;15.998;2024-01-30T08:29:05;5.14;66.29
69938;DHT22;57248;47.320;15.998;2024-01-30T08:31:38;5.22;66.92
69938;DHT22;57248;47.320;15.998;2024-01-30T08:34:10;5.15;67.03
69938;DHT22;57248;47.320;15.998;2024-01-30T08:36:42;4.96;66.78
69938;DHT22;57248;47.320;15.998;2024-01-30T08:39:20;5.49;65.32
69938;DHT22;57248;47.320;15.998;2024-01-30T08:41:53;5.69;64.28
69938;DHT22;57248;47.320;15.998;2024-01-30T08:44:26;5.47;64.36
69938;DHT22;57248;47.320;15.998;2024-01-30T08:46:59;5.29;65.89
69938;DHT22;57248;47.320;15.998;2024-01-30T08:49:32;5.21;66.92
69938;DHT22;57248;47.320;15.998;2024-01-30T08:52:04;5.83;65.71
69938;DHT22;57248;47.320;15.998;2024-01-30T08:54:36;6.59;63.28
69938;DHT22;57248;47.320;15.998;2024-01-30T08:57:01;7.55;61.37
69938;DHT22;57248;47.320;15.998;2024-01-30T08:59:34;7.15;60.67
69938;DHT22;57248;47.320;15.998;2024-01-30T09:02:06;8.27;58.66
69938;DHT22;57248;47.320;15.998;2024-01-30T09:04:38;7.45;59.49
69938;DHT22;57248;47.320;15.998;2024-01-30T09:07:03;8.10;59.25
69938;DHT22;57248;47.320;15.998;2024-01-30T09:09:38;8.07;59.12
69938;DHT22;57248;47.320;15.998;2024-01-30T09:12:12;9.24;57.64
69938;DHT22;57248;47.320;15.998;2024-01-30T09:14:44;9.36;56.21
69938;DHT22;57248;47.320;15.998;2024-01-30T09:17:16;10.05;54.90
69938;DHT22;57248;47.320;15.998;2024-01-30T09:19:49;9.65;53.65
69938;DHT22;57248;47.320;15.998;2024-01-30T09:22:22;10.26;53.82
69938;DHT22;57248;47.320;15.998;2024-01-30T09:24:47;10.94;52.76
69938;DHT22;57248;47.320;15.998;2024-01-30T09:27:21;9.40;54.34
69938;DHT22;57248;47.320;15.998;2024-01-30T09:29:53;8.92;56.62
69938;DHT22;57248;47.320;15.998;2024-01-30T09:32:25;8.81;56.57
69938;DHT22;57248;47.320;15.998;2024-01-30T09:34:57;8.54;57.95
69938;DHT22;57248;47.320;15.998;2024-01-30T09:37:29;8.29;58.55
69938;DHT22;57248;47.320;15.998;2024-01-30T09:40:03;7.81;59.74
69938;DHT22;57248;47.320;15.998;2024-01-30T09:42:45;8.69;58.43
69938;DHT22;57248;47.320;15.998;2024-01-30T09:45:19;9.43;57.59
69938;DHT22;57248;47.320;15.998;2024-01-30T09:47:52;8.98;57.51
69938;DHT22;57248;47.320;15.998;2024-01-30T09:50:25;8.02;60.12
69938;DHT22;57248;47.320;15.998;2024-01-30T09:52:58;7.45;59.87
69938;DHT22;57248;47.320;15.998;2024-01-30T09:55:31;7.76;59.27
69938;DHT22;57248;47.320;15.998;2024-01-30T09:58:03;7.45;61.28
69938;DHT22;57248;47.320;15.998;2024-01-30T10:00:35;8.93;58.20
69938;DHT22;57248;47.320;15.998;2024-01-30T10:03:07;10.08;55.83
69938;DHT22;57248;47.320;15.998;2024-01-30T10:05:40;8.34;57.76
69938;DHT22;57248;47.320;15.998;2024-01-30T10:08:12;7.83;58.53
69938;DHT22;57248;47.320;15.998;2024-01-30T10:10:46;8.71;59.51
69938;DHT22;57248;47.320;15.998;2024-01-30T10:13:19;10.53;54.62
69938;DHT22;57248;47.320;15.998;2024-01-30T10:15:52;10.02;55.00
69938;DHT22;57248;47.320;15.998;2024-01-30T10:18:25;9.48;55.66
69938;DHT22;57248;47.320;15.998;2024-01-30T10:20:58;10.19;55.78
69938;DHT22;57248;47.320;15.998;2024-01-30T10:23:31;10.67;53.95
69938;DHT22;57248;47.320;15.998;2024-01-30T10:25:57;8.96;56.83
69938;DHT22;57248;47.320;15.998;2024-01-30T10:28:29;8.44;56.43
69938;DHT22;57248;47.320;15.998;2024-01-30T10:31:02;6.84;61.63
69938;DHT22;57248;47.320;15.998;2024-01-30T10:33:37;8.36;58.07
69938;DHT22;57248;47.320;15.998;2024-01-30T10:36:05;7.99;61.00
69938;DHT22;57248;47.320;15.998;2024-01-30T10:38:45;8.36;59.64
69938;DHT22;57248;47.320;15.998;2024-01-30T10:41:27;8.86;58.81
69938;DHT22;57248;47.320;15.998;2024-01-30T10:44:09;8.89;59.48
69938;DHT22;57248;47.320;15.998;2024-01-30T10:46:52;8.82;58.09
69938;DHT22;57248;47.320;15.998;2024-01-30T10:49:25;8.51;59.72
69938;DHT22;57248;47.320;15.998;2024-01-30T10:51:57;8.48;59.95
69938;DHT22;57248;47.320;15.998;2024-01-30T10:54:31;8.40;59.20
69938;DHT22;57248;47.320;15.998;2024-01-30T10:57:03;7.97;60.59
69938;DHT22;57248;47.320;15.998;2024-01-30T10:59:36;8.22;60.31
69938;DHT22;57248;47.320;15.998;2024-01-30T11:02:09;8.29;61.17
69938;DHT22;57248;47.320;15.998;2024-01-30T11:04:43;8.48;60.11
69938;DHT22;57248;47.320;15.998;2024-01-30T11:07:24;8.81;59.14
69938;DHT22;57248;47.320;15.998;2024-01-30T11:10:02;9.09;59.34
69938;DHT22;57248;47.320;15.998;2024-01-30T11:12:39;10.02;57.04
69938;DHT22;57248;47.320;15.998;2024-01-30T11:15:16;9.78;57.45
69938;DHT22;57248;47.320;15.998;2024-01-30T11:20:27;8.91;59.20
69938;DHT22;57248;47.320;15.998;2024-01-30T11:22:59;9.63;57.76
69938;DHT22;57248;47.320;15.998;2024-01-30T11:25:34;9.26;58.44
69938;DHT22;57248;47.320;15.998;2024-01-30T11:28:13;9.16;58.87
69938;DHT22;57248;47.320;15.998;2024-01-30T11:30:45;9.26;56.99
69938;DHT22;57248;47.320;15.998;2024-01-30T11:33:29;9.24;57.02
69938;DHT22;57248;47.320;15.998;2024-01-30T11:36:05;10.21;55.18
69938;DHT22;57248;47.320;15.998;2024-01-30T11:38:46;9.82;55.61
69938;DHT22;57248;47.320;15.998;2024-01-30T11:41:19;9.99;55.03
69938;DHT22;57248;47.320;15.998;2024-01-30T11:43:53;9.54;56.00
69938;DHT22;57248;47.320;15.998;2024-01-30T11:46:25;10.73;54.30
69938;DHT22;57248;47.320;15.998;2024-01-30T11:48:58;12.09;51.49
69938;DHT22;57248;47.320;15.998;2024-01-30T11:51:31;10.57;52.80
69938;DHT22;57248;47.320;15.998;2024-01-30T11:54:03;11.15;52.14
69938;DHT22;57248;47.320;15.998;2024-01-30T11:56:28;10.80;51.56
69938;DHT22;57248;47.320;15.998;2024-01-30T11:59:01;12.48;48.92
69938;DHT22;57248;47.320;15.998;2024-01-30T12:01:34;10.64;50.30
69938;DHT22;57248;47.320;15.998;2024-01-30T12:04:00;10.87;50.82
69938;DHT22;57248;47.320;15.998;2024-01-30T12:06:42;11.92;49.00
69938;DHT22;57248;47.320;15.998;2024-01-30T12:09:14;10.36;50.52
69938;DHT22;57248;47.320;15.998;2024-01-30T12:11:47;9.84;51.28
69938;DHT22;57248;47.320;15.998;2024-01-30T12:14:20;10.23;50.95
69938;DHT22;57248;47.320;15.998;2024-01-30T12:16:49;10.63;50.96
69938;DHT22;57248;47.320;15.998;2024-01-30T12:19:24;10.76;50.66
69938;DHT22;57248;47.320;15.998;2024-01-30T12:21:57;11.17;51.13
69938;DHT22;57248;47.320;15.998;2024-01-30T12:24:46;10.53;51.61
69938;DHT22;57248;47.320;15.998;2024-01-30T12:27:26;10.08;53.44
69938;DHT22;57248;47.320;15.998;2024-01-30T12:29:58;9.77;52.66
69938;DHT22;57248;47.320;15.998;2024-01-30T12:32:23;10.52;53.16
69938;DHT22;57248;47.320;15.998;2024-01-30T12:34:56;10.36;52.88
69938;DHT22;57248;47.320;15.998;2024-01-30T12:37:30;9.92;53.30
69938;DHT22;57248;47.320;15.998;2024-01-30T12:40:02;9.87;53.04
69938;DHT22;57248;47.320;15.998;2024-01-30T12:42:41;10.62;51.56
69938;DHT22;57248;47.320;15.998;2024-01-30T12:45:14;11.46;50.04
69938;DHT22;57248;47.320;15.998;2024-01-30T12:47:55;11.14;51.15
69938;DHT22;57248;47.320;15.998;2024-01-30T12:50:27;11.12;51.49
69938;DHT22;57248;47.320;15.998;2024-01-30T12:52:52;11.03;50.40
69938;DHT22;57248;47.320;15.998;2024-01-30T12:55:25;10.31;51.52
69938;DHT22;57248;47.320;15.998;2024-01-30T12:58:00;10.41;52.13
69938;DHT22;57248;47.320;15.998;2024-01-30T13:00:32;10.50;51.92
69938;DHT22;57248;47.320;15.998;2024-01-30T13:03:06;10.74;50.81
69938;DHT22;57248;47.320;15.998;2024-01-30T13:05:39;11.72;49.29
69938;DHT22;57248;47.320;15.998;2024-01-30T13:08:11;11.76;48.10
69938;DHT22;57248;47.320;15.998;2024-01-30T13:10:45;11.30;48.89
69938;DHT22;57248;47.320;15.998;2024-01-30T13:13:17;10.45;50.87
69938;DHT22;57248;47.320;15.998;2024-01-30T13:15:50;9.99;51.84
69938;DHT22;57248;47.320;15.998;2024-01-30T13:18:22;10.73;50.95
69938;DHT22;57248;47.320;15.998;2024-01-30T13:20:47;9.98;51.52
69938;DHT22;57248;47.320;15.998;2024-01-30T13:23:19;9.92;52.65
69938;DHT22;57248;47.320;15.998;2024-01-30T13:25:52;9.40;53.18
69938;DHT22;57248;47.320;15.998;2024-01-30T13:28:26;9.11;53.92
69938;DHT22;57248;47.320;15.998;2024-01-30T13:30:59;9.05;54.59
69938;DHT22;57248;47.320;15.998;2024-01-30T13:33:32;8.71;55.34
69938;DHT22;57248;47.320;15.998;2024-01-30T13:36:04;9.01;54.95
69938;DHT22;57248;47.320;15.998;2024-01-30T13:38:36;8.48;56.64
69938;DHT22;57248;47.320;15.998;2024-01-30T13:41:15;8.44;56.16
69938;DHT22;57248;47.320;15.998;2024-01-30T13:43:49;7.87;57.76
69938;DHT22;57248;47.320;15.998;2024-01-30T13:46:21;8.04;56.91
69938;DHT22;57248;47.320;15.998;2024-01-30T13:48:53;7.83;57.51
69938;DHT22;57248;47.320;15.998;2024-01-30T13:51:20;8.09;57.67
69938;DHT22;57248;47.320;15.998;2024-01-30T13:53:52;8.04;57.36
69938;DHT22;57248;47.320;15.998;2024-01-30T13:56:25;8.40;57.47
69938;DHT22;57248;47.320;15.998;2024-01-30T13:58:58;7.93;58.16
69938;DHT22;57248;47.320;15.998;2024-01-30T14:01:32;7.59;58.46
69938;DHT22;57248;47.320;15.998;2024-01-30T14:04:05;8.50;57.15
69938;DHT22;57248;47.320;15.998;2024-01-30T14:06:37;8.23;56.92
69938;DHT22;57248;47.320;15.998;2024-01-30T14:09:09;8.68;56.69
69938;DHT22;57248;47.320;15.998;2024-01-30T14:11:36;8.20;57.64
69938;DHT22;57248;47.320;15.998;2024-01-30T14:14:09;8.12;57.75
69938;DHT22;57248;47.320;15.998;2024-01-30T14:16:41;7.89;58.28
69938;DHT22;57248;47.320;15.998;2024-01-30T14:19:13;7.78;58.86
69938;DHT22;57248;47.320;15.998;2024-01-30T14:21:45;7.90;58.29
69938;DHT22;57248;47.320;15.998;2024-01-30T14:24:17;7.66;58.52
69938;DHT22;57248;47.320;15.998;2024-01-30T14:26:50;7.72;58.26
69938;DHT22;57248;47.320;15.998;2024-01-30T14:29:23;7.52;58.78
69938;DHT22;57248;47.320;15.998;2024-01-30T14:31:56;7.21;59.91
69938;DHT22;57248;47.320;15.998;2024-01-30T14:34:30;7.17;60.75
69938;DHT22;57248;47.320;15.998;2024-01-30T14:37:03;7.47;59.95
69938;DHT22;57248;47.320;15.998;2024-01-30T14:39:35;7.32;60.01
69938;DHT22;57248;47.320;15.998;2024-01-30T14:42:15;7.17;60.92
69938;DHT22;57248;47.320;15.998;2024-01-30T14:44:47;7.05;61.27
69938;DHT22;57248;47.320;15.998;2024-01-30T14:47:21;7.11;61.57
69938;DHT22;57248;47.320;15.998;2024-01-30T14:49:53;6.89;61.84
69938;DHT22;57248;47.320;15.998;2024-01-30T14:52:25;6.65;62.41
69938;DHT22;57248;47.320;15.998;2024-01-30T14:54:57;7.23;61.40
69938;DHT22;57248;47.320;15.998;2024-01-30T14:57:30;7.34;61.45
69938;DHT22;57248;47.320;15.998;2024-01-30T15:00:04;7.41;61.01
69938;DHT22;57248;47.320;15.998;2024-01-30T15:02:36;7.32;60.77
69938;DHT22;57248;47.320;15.998;2024-01-30T15:05:08;7.31;60.85
69938;DHT22;57248;47.320;15.998;2024-01-30T15:07:42;6.83;61.52
69938;DHT22;57248;47.320;15.998;2024-01-30T15:10:14;6.63;62.68
69938;DHT22;57248;47.320;15.998;2024-01-30T15:12:41;6.28;63.42
69938;DHT22;57248;47.320;15.998;2024-01-30T15:15:13;6.38;63.21
69938;DHT22;57248;47.320;15.998;2024-01-30T15:17:46;6.10;63.80
69938;DHT22;57248;47.320;15.998;2024-01-30T15:20:18;6.21;63.54
69938;DHT22;57248;47.320;15.998;2024-01-30T15:22:50;5.81;64.71
69938;DHT22;57248;47.320;15.998;2024-01-30T15:25:22;5.66;65.21
69938;DHT22;57248;47.320;15.998;2024-01-30T15:27:54;5.56;65.49
69938;DHT22;57248;47.320;15.998;2024-01-30T15:30:26;5.35;66.15
69938;DHT22;57248;47.320;15.998;2024-01-30T15:32:58;5.28;66.40
69938;DHT22;57248;47.320;15.998;2024-01-30T15:35:46;4.99;67.21
69938;DHT22;57248;47.320;15.998;2024-01-30T15:38:19;4.84;67.98
69938;DHT22;57248;47.320;15.998;2024-01-30T15:41:05;4.71;68.16
69938;DHT22;57248;47.320;15.998;2024-01-30T15:43:37;4.43;69.02
69938;DHT22;57248;47.320;15.998;2024-01-30T15:46:09;4.44;69.15
69938;DHT22;57248;47.320;15.998;2024-01-30T15:48:41;4.32;69.36
69938;DHT22;57248;47.320;15.998;2024-01-30T15:51:06;4.33;69.19
69938;DHT22;57248;47.320;15.998;2024-01-30T15:53:39;4.28;69.16
69938;DHT22;57248;47.320;15.998;2024-01-30T15:56:11;4.10;70.05
69938;DHT22;57248;47.320;15.998;2024-01-30T15:58:43;3.98;70.97